sensor_id;sensor_type;location;lat;lon;timestamp;P1;durP1;ratioP1;P2;durP2;ratioP2
14933;SDS011;7560;51.364;12.384;2024-01-07T00:04:43;27.02;;;13.10;;
14933;SDS011;7560;51.364;12.384;2024-01-07T00:09:45;31.13;;;14.07;;
14933;SDS011;7560;51.364;12.384;2024-01-07T00:14:47;28.85;;;13.77;;
14933;SDS011;7560;51.364;12.384;2024-01-07T00:19:49;29.95;;;14.90;;
14933;SDS011;7560;51.364;12.384;2024-01-07T00:24:50;27.67;;;13.90;;
14933;SDS011;7560;51.364;12.384;2024-01-07T00:29:52;29.58;;;14.15;;
14933;SDS011;7560;51.364;12.384;2024-01-07T00:34:54;27.98;;;13.70;;
14933;SDS011;7560;51.364;12.384;2024-01-07T00:39:56;23.42;;;12.10;;
14933;SDS011;7560;51.364;12.384;2024-01-07T00:44:58;25.40;;;12.32;;
14933;SDS011;7560;51.364;12.384;2024-01-07T00:50:00;24.80;;;11.88;;
14933;SDS011;7560;51.364;12.384;2024-01-07T00:55:05;25.67;;;12.52;;
14933;SDS011;7560;51.364;12.384;2024-01-07T01:00:08;22.42;;;11.45;;
14933;SDS011;7560;51.364;12.384;2024-01-07T01:05:10;28.02;;;12.82;;
14933;SDS011;7560;51.364;12.384;2024-01-07T01:10:12;25.85;;;12.65;;
14933;SDS011;7560;51.364;12.384;2024-01-07T01:15:16;22.15;;;11.50;;
14933;SDS011;7560;51.364;12.384;2024-01-07T01:20:17;23.73;;;11.10;;
14933;SDS011;7560;51.364;12.384;2024-01-07T01:25:19;25.17;;;11.40;;
14933;SDS011;7560;51.364;12.384;2024-01-07T01:30:21;19.60;;;10.80;;
14933;SDS011;7560;51.364;12.384;2024-01-07T01:35:23;25.60;;;11.88;;
14933;SDS011;7560;51.364;12.384;2024-01-07T01:40:25;20.98;;;10.70;;
14933;SDS011;7560;51.364;12.384;2024-01-07T01:45:27;22.30;;;10.45;;
14933;SDS011;7560;51.364;12.384;2024-01-07T01:50:29;22.67;;;10.63;;
14933;SDS011;7560;51.364;12.384;2024-01-07T01:55:31;18.15;;;9.63;;
14933;SDS011;7560;51.364;12.384;2024-01-07T02:00:33;21.58;;;10.27;;
14933;SDS011;7560;51.364;12.384;2024-01-07T02:05:35;18.33;;;9.15;;
14933;SDS011;7560;51.364;12.384;2024-01-07T02:10:37;20.15;;;9.90;;
14933;SDS011;7560;51.364;12.384;2024-01-07T02:15:42;19.10;;;9.60;;
14933;SDS011;7560;51.364;12.384;2024-01-07T02:20:45;15.63;;;8.90;;
14933;SDS011;7560;51.364;12.384;2024-01-07T02:25:46;15.40;;;8.88;;
14933;SDS011;7560;51.364;12.384;2024-01-07T02:30:48;16.80;;;9.30;;
14933;SDS011;7560;51.364;12.384;2024-01-07T02:35:50;16.45;;;9.20;;
14933;SDS011;7560;51.364;12.384;2024-01-07T02:40:52;14.95;;;8.27;;
14933;SDS011;7560;51.364;12.384;2024-01-07T02:45:53;17.92;;;9.40;;
14933;SDS011;7560;51.364;12.384;2024-01-07T02:50:55;17.35;;;8.60;;
14933;SDS011;7560;51.364;12.384;2024-01-07T02:55:57;19.08;;;9.00;;
14933;SDS011;7560;51.364;12.384;2024-01-07T03:00:59;19.23;;;9.77;;
14933;SDS011;7560;51.364;12.384;2024-01-07T03:06:01;16.38;;;8.77;;
14933;SDS011;7560;51.364;12.384;2024-01-07T03:11:06;13.88;;;7.28;;
14933;SDS011;7560;51.364;12.384;2024-01-07T03:16:08;16.35;;;7.70;;
14933;SDS011;7560;51.364;12.384;2024-01-07T03:21:19;12.50;;;7.25;;
14933;SDS011;7560;51.364;12.384;2024-01-07T03:26:22;14.40;;;6.75;;
14933;SDS011;7560;51.364;12.384;2024-01-07T03:31:24;13.60;;;6.75;;
14933;SDS011;7560;51.364;12.384;2024-01-07T03:36:26;13.00;;;6.60;;
14933;SDS011;7560;51.364;12.384;2024-01-07T03:41:28;13.30;;;6.47;;
14933;SDS011;7560;51.364;12.384;2024-01-07T03:46:30;9.65;;;5.32;;
14933;SDS011;7560;51.364;12.384;2024-01-07T03:51:32;12.18;;;5.88;;
14933;SDS011;7560;51.364;12.384;2024-01-07T03:56:33;10.85;;;5.88;;
14933;SDS011;7560;51.364;12.384;2024-01-07T04:01:35;11.57;;;6.18;;
14933;SDS011;7560;51.364;12.384;2024-01-07T04:06:37;11.25;;;5.82;;
14933;SDS011;7560;51.364;12.384;2024-01-07T04:11:39;12.00;;;5.55;;
14933;SDS011;7560;51.364;12.384;2024-01-07T04:16:42;9.13;;;5.53;;
14933;SDS011;7560;51.364;12.384;2024-01-07T04:21:47;9.95;;;5.25;;
14933;SDS011;7560;51.364;12.384;2024-01-07T04:26:48;10.25;;;5.25;;
14933;SDS011;7560;51.364;12.384;2024-01-07T04:31:50;8.98;;;4.80;;
14933;SDS011;7560;51.364;12.384;2024-01-07T04:36:52;9.60;;;5.18;;
14933;SDS011;7560;51.364;12.384;2024-01-07T04:41:54;8.85;;;4.95;;
14933;SDS011;7560;51.364;12.384;2024-01-07T04:46:55;9.70;;;5.10;;
14933;SDS011;7560;51.364;12.384;2024-01-07T04:51:57;7.65;;;5.13;;
14933;SDS011;7560;51.364;12.384;2024-01-07T04:56:59;8.52;;;4.88;;
14933;SDS011;7560;51.364;12.384;2024-01-07T05:02:01;6.38;;;4.10;;
14933;SDS011;7560;51.364;12.384;2024-01-07T05:07:03;9.63;;;4.82;;
14933;SDS011;7560;51.364;12.384;2024-01-07T05:12:05;10.15;;;4.43;;
14933;SDS011;7560;51.364;12.384;2024-01-07T05:17:07;7.45;;;4.57;;
14933;SDS011;7560;51.364;12.384;2024-01-07T05:22:09;7.28;;;4.25;;
14933;SDS011;7560;51.364;12.384;2024-01-07T05:27:11;8.88;;;4.07;;
14933;SDS011;7560;51.364;12.384;2024-01-07T05:32:13;6.15;;;3.70;;
14933;SDS011;7560;51.364;12.384;2024-01-07T05:37:14;7.22;;;4.30;;
14933;SDS011;7560;51.364;12.384;2024-01-07T05:42:16;7.65;;;3.75;;
14933;SDS011;7560;51.364;12.384;2024-01-07T05:47:18;8.15;;;3.55;;
14933;SDS011;7560;51.364;12.384;2024-01-07T05:52:20;6.82;;;3.72;;
14933;SDS011;7560;51.364;12.384;2024-01-07T05:57:22;6.13;;;3.33;;
14933;SDS011;7560;51.364;12.384;2024-01-07T06:02:23;7.25;;;3.53;;
14933;SDS011;7560;51.364;12.384;2024-01-07T06:07:26;6.13;;;3.35;;
14933;SDS011;7560;51.364;12.384;2024-01-07T06:12:28;6.13;;;3.33;;
14933;SDS011;7560;51.364;12.384;2024-01-07T06:17:30;5.10;;;3.17;;
14933;SDS011;7560;51.364;12.384;2024-01-07T06:22:31;7.03;;;3.63;;
14933;SDS011;7560;51.364;12.384;2024-01-07T06:27:34;5.07;;;3.30;;
14933;SDS011;7560;51.364;12.384;2024-01-07T06:32:36;6.05;;;3.72;;
14933;SDS011;7560;51.364;12.384;2024-01-07T06:37:38;6.55;;;3.42;;
14933;SDS011;7560;51.364;12.384;2024-01-07T06:42:39;6.88;;;3.30;;
14933;SDS011;7560;51.364;12.384;2024-01-07T06:47:42;5.65;;;3.00;;
14933;SDS011;7560;51.364;12.384;2024-01-07T06:52:44;6.72;;;2.97;;
14933;SDS011;7560;51.364;12.384;2024-01-07T06:57:46;5.45;;;3.20;;
14933;SDS011;7560;51.364;12.384;2024-01-07T07:02:47;5.80;;;3.58;;
14933;SDS011;7560;51.364;12.384;2024-01-07T07:07:49;7.03;;;3.33;;
14933;SDS011;7560;51.364;12.384;2024-01-07T07:12:55;4.45;;;2.85;;
14933;SDS011;7560;51.364;12.384;2024-01-07T07:17:57;6.63;;;3.78;;
14933;SDS011;7560;51.364;12.384;2024-01-07T07:22:59;6.65;;;3.42;;
14933;SDS011;7560;51.364;12.384;2024-01-07T07:28:01;7.18;;;4.28;;
14933;SDS011;7560;51.364;12.384;2024-01-07T07:33:02;6.90;;;3.50;;
14933;SDS011;7560;51.364;12.384;2024-01-07T07:38:04;5.38;;;3.08;;
14933;SDS011;7560;51.364;12.384;2024-01-07T07:43:06;6.32;;;3.30;;
14933;SDS011;7560;51.364;12.384;2024-01-07T07:48:08;6.22;;;3.47;;
14933;SDS011;7560;51.364;12.384;2024-01-07T07:53:10;5.63;;;3.67;;
14933;SDS011;7560;51.364;12.384;2024-01-07T07:58:12;6.47;;;3.75;;
14933;SDS011;7560;51.364;12.384;2024-01-07T08:03:14;4.32;;;3.25;;
14933;SDS011;7560;51.364;12.384;2024-01-07T08:08:17;6.15;;;3.45;;
14933;SDS011;7560;51.364;12.384;2024-01-07T08:13:18;5.57;;;3.30;;
14933;SDS011;7560;51.364;12.384;2024-01-07T08:18:20;6.35;;;3.67;;
14933;SDS011;7560;51.364;12.384;2024-01-07T08:23:22;5.93;;;2.90;;
14933;SDS011;7560;51.364;12.384;2024-01-07T08:28:25;4.93;;;3.25;;
14933;SDS011;7560;51.364;12.384;2024-01-07T08:33:27;4.30;;;3.08;;
14933;SDS011;7560;51.364;12.384;2024-01-07T08:38:30;5.03;;;3.00;;
14933;SDS011;7560;51.364;12.384;2024-01-07T08:43:32;6.13;;;3.30;;
14933;SDS011;7560;51.364;12.384;2024-01-07T08:48:34;4.63;;;2.92;;
14933;SDS011;7560;51.364;12.384;2024-01-07T08:53:36;4.70;;;2.83;;
14933;SDS011;7560;51.364;12.384;2024-01-07T08:58:37;6.03;;;3.08;;
14933;SDS011;7560;51.364;12.384;2024-01-07T09:03:41;3.85;;;2.85;;
14933;SDS011;7560;51.364;12.384;2024-01-07T09:08:43;4.43;;;2.78;;
14933;SDS011;7560;51.364;12.384;2024-01-07T09:13:45;3.58;;;2.80;;
14933;SDS011;7560;51.364;12.384;2024-01-07T09:18:49;2.88;;;2.30;;
14933;SDS011;7560;51.364;12.384;2024-01-07T09:23:52;3.67;;;2.42;;
14933;SDS011;7560;51.364;12.384;2024-01-07T09:28:54;3.17;;;2.08;;
14933;SDS011;7560;51.364;12.384;2024-01-07T09:33:56;3.45;;;2.10;;
14933;SDS011;7560;51.364;12.384;2024-01-07T09:38:58;2.67;;;2.05;;
14933;SDS011;7560;51.364;12.384;2024-01-07T09:43:59;2.33;;;1.98;;
14933;SDS011;7560;51.364;12.384;2024-01-07T09:49:01;3.03;;;1.90;;
14933;SDS011;7560;51.364;12.384;2024-01-07T09:54:03;4.00;;;2.13;;
14933;SDS011;7560;51.364;12.384;2024-01-07T09:59:12;2.65;;;1.98;;
14933;SDS011;7560;51.364;12.384;2024-01-07T10:04:16;2.58;;;1.92;;
14933;SDS011;7560;51.364;12.384;2024-01-07T10:09:18;3.22;;;2.22;;
14933;SDS011;7560;51.364;12.384;2024-01-07T10:14:20;3.17;;;1.80;;
14933;SDS011;7560;51.364;12.384;2024-01-07T10:19:27;3.35;;;2.00;;
14933;SDS011;7560;51.364;12.384;2024-01-07T10:24:36;2.80;;;1.70;;
14933;SDS011;7560;51.364;12.384;2024-01-07T10:29:39;2.00;;;1.67;;
14933;SDS011;7560;51.364;12.384;2024-01-07T10:34:41;1.67;;;1.40;;
14933;SDS011;7560;51.364;12.384;2024-01-07T10:39:48;3.35;;;1.70;;
14933;SDS011;7560;51.364;12.384;2024-01-07T10:44:50;2.20;;;1.70;;
14933;SDS011;7560;51.364;12.384;2024-01-07T10:49:52;1.95;;;1.40;;
14933;SDS011;7560;51.364;12.384;2024-01-07T10:55:00;1.80;;;1.58;;
14933;SDS011;7560;51.364;12.384;2024-01-07T11:00:11;2.13;;;1.48;;
14933;SDS011;7560;51.364;12.384;2024-01-07T11:10:34;2.90;;;1.40;;
14933;SDS011;7560;51.364;12.384;2024-01-07T11:15:52;2.40;;;1.45;;
14933;SDS011;7560;51.364;12.384;2024-01-07T11:20:58;1.60;;;1.42;;
14933;SDS011;7560;51.364;12.384;2024-01-07T11:26:04;3.70;;;1.90;;
14933;SDS011;7560;51.364;12.384;2024-01-07T11:31:06;2.35;;;1.50;;
14933;SDS011;7560;51.364;12.384;2024-01-07T11:36:10;2.45;;;1.55;;
14933;SDS011;7560;51.364;12.384;2024-01-07T11:41:14;2.95;;;1.67;;
14933;SDS011;7560;51.364;12.384;2024-01-07T11:46:18;2.13;;;1.60;;
14933;SDS011;7560;51.364;12.384;2024-01-07T11:51:20;2.95;;;2.00;;
14933;SDS011;7560;51.364;12.384;2024-01-07T11:56:24;2.25;;;1.70;;
14933;SDS011;7560;51.364;12.384;2024-01-07T12:01:25;2.25;;;1.40;;
14933;SDS011;7560;51.364;12.384;2024-01-07T12:06:28;2.25;;;1.67;;
14933;SDS011;7560;51.364;12.384;2024-01-07T12:11:30;3.83;;;2.10;;
14933;SDS011;7560;51.364;12.384;2024-01-07T12:16:32;4.40;;;2.20;;
14933;SDS011;7560;51.364;12.384;2024-01-07T12:21:37;2.28;;;1.77;;
14933;SDS011;7560;51.364;12.384;2024-01-07T12:26:39;2.42;;;1.88;;
14933;SDS011;7560;51.364;12.384;2024-01-07T12:31:41;2.15;;;1.58;;
14933;SDS011;7560;51.364;12.384;2024-01-07T12:36:44;2.55;;;1.75;;
14933;SDS011;7560;51.364;12.384;2024-01-07T12:41:47;2.13;;;1.65;;
14933;SDS011;7560;51.364;12.384;2024-01-07T12:46:49;1.67;;;1.58;;
14933;SDS011;7560;51.364;12.384;2024-01-07T12:51:53;2.03;;;1.45;;
14933;SDS011;7560;51.364;12.384;2024-01-07T12:56:55;1.95;;;1.55;;
14933;SDS011;7560;51.364;12.384;2024-01-07T13:01:57;2.60;;;1.33;;
14933;SDS011;7560;51.364;12.384;2024-01-07T13:06:59;2.67;;;2.10;;
14933;SDS011;7560;51.364;12.384;2024-01-07T13:12:01;1.70;;;1.30;;
14933;SDS011;7560;51.364;12.384;2024-01-07T13:17:03;2.40;;;1.52;;
14933;SDS011;7560;51.364;12.384;2024-01-07T13:22:05;1.88;;;1.20;;
14933;SDS011;7560;51.364;12.384;2024-01-07T13:27:07;1.98;;;1.60;;
14933;SDS011;7560;51.364;12.384;2024-01-07T13:32:12;3.60;;;1.80;;
14933;SDS011;7560;51.364;12.384;2024-01-07T13:37:19;2.58;;;1.90;;
14933;SDS011;7560;51.364;12.384;2024-01-07T13:42:21;2.20;;;1.90;;
14933;SDS011;7560;51.364;12.384;2024-01-07T13:47:23;2.28;;;1.65;;
14933;SDS011;7560;51.364;12.384;2024-01-07T13:52:25;2.65;;;1.60;;
14933;SDS011;7560;51.364;12.384;2024-01-07T13:57:27;3.50;;;1.83;;
14933;SDS011;7560;51.364;12.384;2024-01-07T14:02:28;2.70;;;1.83;;
14933;SDS011;7560;51.364;12.384;2024-01-07T14:07:30;2.72;;;1.88;;
14933;SDS011;7560;51.364;12.384;2024-01-07T14:12:32;1.58;;;1.45;;
14933;SDS011;7560;51.364;12.384;2024-01-07T14:17:34;3.80;;;1.55;;
14933;SDS011;7560;51.364;12.384;2024-01-07T14:22:36;2.00;;;1.52;;
14933;SDS011;7560;51.364;12.384;2024-01-07T14:27:38;2.47;;;1.58;;
14933;SDS011;7560;51.364;12.384;2024-01-07T14:32:40;2.63;;;1.70;;
14933;SDS011;7560;51.364;12.384;2024-01-07T14:37:42;1.90;;;1.67;;
14933;SDS011;7560;51.364;12.384;2024-01-07T14:42:44;2.88;;;1.70;;
14933;SDS011;7560;51.364;12.384;2024-01-07T14:47:46;3.85;;;1.92;;
14933;SDS011;7560;51.364;12.384;2024-01-07T14:52:48;3.53;;;1.88;;
14933;SDS011;7560;51.364;12.384;2024-01-07T14:57:50;2.92;;;2.10;;
14933;SDS011;7560;51.364;12.384;2024-01-07T15:02:52;2.97;;;1.90;;
14933;SDS011;7560;51.364;12.384;2024-01-07T15:07:54;3.97;;;2.20;;
14933;SDS011;7560;51.364;12.384;2024-01-07T15:12:56;5.22;;;2.97;;
14933;SDS011;7560;51.364;12.384;2024-01-07T15:18:07;3.97;;;3.05;;
14933;SDS011;7560;51.364;12.384;2024-01-07T15:23:09;4.47;;;3.10;;
14933;SDS011;7560;51.364;12.384;2024-01-07T15:28:11;6.97;;;3.45;;
14933;SDS011;7560;51.364;12.384;2024-01-07T15:33:14;6.15;;;3.38;;
14933;SDS011;7560;51.364;12.384;2024-01-07T15:38:17;7.05;;;4.25;;
14933;SDS011;7560;51.364;12.384;2024-01-07T15:43:19;6.93;;;3.78;;
14933;SDS011;7560;51.364;12.384;2024-01-07T15:48:21;7.63;;;3.63;;
14933;SDS011;7560;51.364;12.384;2024-01-07T15:53:23;6.63;;;4.20;;
14933;SDS011;7560;51.364;12.384;2024-01-07T15:58:29;7.63;;;3.63;;
14933;SDS011;7560;51.364;12.384;2024-01-07T16:03:35;6.38;;;3.97;;
14933;SDS011;7560;51.364;12.384;2024-01-07T16:08:37;6.43;;;3.53;;
14933;SDS011;7560;51.364;12.384;2024-01-07T16:13:38;8.07;;;4.15;;
14933;SDS011;7560;51.364;12.384;2024-01-07T16:18:40;6.13;;;4.20;;
14933;SDS011;7560;51.364;12.384;2024-01-07T16:23:42;8.40;;;4.43;;
14933;SDS011;7560;51.364;12.384;2024-01-07T16:28:44;8.23;;;4.40;;
14933;SDS011;7560;51.364;12.384;2024-01-07T16:33:46;8.55;;;4.78;;
14933;SDS011;7560;51.364;12.384;2024-01-07T16:38:48;6.50;;;4.00;;
14933;SDS011;7560;51.364;12.384;2024-01-07T16:43:50;9.07;;;4.13;;
14933;SDS011;7560;51.364;12.384;2024-01-07T16:48:52;7.75;;;4.47;;
14933;SDS011;7560;51.364;12.384;2024-01-07T16:54:14;8.55;;;4.65;;
14933;SDS011;7560;51.364;12.384;2024-01-07T16:59:15;13.55;;;6.57;;
14933;SDS011;7560;51.364;12.384;2024-01-07T17:04:17;11.35;;;6.03;;
14933;SDS011;7560;51.364;12.384;2024-01-07T17:09:21;8.77;;;5.35;;
14933;SDS011;7560;51.364;12.384;2024-01-07T17:14:25;8.10;;;4.68;;
14933;SDS011;7560;51.364;12.384;2024-01-07T17:19:27;10.90;;;5.25;;
14933;SDS011;7560;51.364;12.384;2024-01-07T17:24:29;9.65;;;4.47;;
14933;SDS011;7560;51.364;12.384;2024-01-07T17:29:33;13.50;;;5.35;;
14933;SDS011;7560;51.364;12.384;2024-01-07T17:34:35;19.08;;;8.38;;
14933;SDS011;7560;51.364;12.384;2024-01-07T17:39:37;31.20;;;10.43;;
14933;SDS011;7560;51.364;12.384;2024-01-07T17:44:40;22.38;;;8.45;;
14933;SDS011;7560;51.364;12.384;2024-01-07T17:49:44;8.43;;;5.35;;
14933;SDS011;7560;51.364;12.384;2024-01-07T17:54:47;10.15;;;5.38;;
14933;SDS011;7560;51.364;12.384;2024-01-07T17:59:49;8.95;;;5.50;;
14933;SDS011;7560;51.364;12.384;2024-01-07T18:04:51;9.82;;;5.45;;
14933;SDS011;7560;51.364;12.384;2024-01-07T18:09:53;9.82;;;5.75;;
14933;SDS011;7560;51.364;12.384;2024-01-07T18:14:54;32.67;;;13.02;;
14933;SDS011;7560;51.364;12.384;2024-01-07T18:19:58;11.60;;;5.55;;
14933;SDS011;7560;51.364;12.384;2024-01-07T18:25:00;8.05;;;4.40;;
14933;SDS011;7560;51.364;12.384;2024-01-07T18:30:02;5.35;;;3.58;;
14933;SDS011;7560;51.364;12.384;2024-01-07T18:35:04;6.88;;;3.70;;
14933;SDS011;7560;51.364;12.384;2024-01-07T18:40:07;5.88;;;3.50;;
14933;SDS011;7560;51.364;12.384;2024-01-07T18:45:12;4.72;;;3.28;;
14933;SDS011;7560;51.364;12.384;2024-01-07T18:50:14;6.00;;;3.28;;
14933;SDS011;7560;51.364;12.384;2024-01-07T18:55:17;6.55;;;3.65;;
14933;SDS011;7560;51.364;12.384;2024-01-07T19:00:21;4.57;;;3.25;;
14933;SDS011;7560;51.364;12.384;2024-01-07T19:05:23;5.10;;;3.15;;
14933;SDS011;7560;51.364;12.384;2024-01-07T19:10:25;6.80;;;3.67;;
14933;SDS011;7560;51.364;12.384;2024-01-07T19:15:27;6.38;;;3.30;;
14933;SDS011;7560;51.364;12.384;2024-01-07T19:20:28;6.00;;;3.55;;
14933;SDS011;7560;51.364;12.384;2024-01-07T19:25:33;6.40;;;3.90;;
14933;SDS011;7560;51.364;12.384;2024-01-07T19:30:35;6.18;;;3.85;;
14933;SDS011;7560;51.364;12.384;2024-01-07T19:35:37;5.97;;;3.60;;
14933;SDS011;7560;51.364;12.384;2024-01-07T19:40:39;5.20;;;3.92;;
14933;SDS011;7560;51.364;12.384;2024-01-07T19:45:40;9.20;;;3.92;;
14933;SDS011;7560;51.364;12.384;2024-01-07T19:50:43;6.28;;;3.40;;
14933;SDS011;7560;51.364;12.384;2024-01-07T19:55:47;6.40;;;3.80;;
14933;SDS011;7560;51.364;12.384;2024-01-07T20:00:50;6.50;;;3.58;;
14933;SDS011;7560;51.364;12.384;2024-01-07T20:05:52;6.70;;;4.20;;
14933;SDS011;7560;51.364;12.384;2024-01-07T20:10:54;7.22;;;4.32;;
14933;SDS011;7560;51.364;12.384;2024-01-07T20:15:59;6.85;;;4.18;;
14933;SDS011;7560;51.364;12.384;2024-01-07T20:21:02;6.30;;;3.72;;
14933;SDS011;7560;51.364;12.384;2024-01-07T20:26:04;7.70;;;4.20;;
14933;SDS011;7560;51.364;12.384;2024-01-07T20:31:06;6.57;;;3.70;;
14933;SDS011;7560;51.364;12.384;2024-01-07T20:36:11;7.57;;;4.07;;
14933;SDS011;7560;51.364;12.384;2024-01-07T20:41:16;7.13;;;4.40;;
14933;SDS011;7560;51.364;12.384;2024-01-07T20:46:18;7.60;;;4.53;;
14933;SDS011;7560;51.364;12.384;2024-01-07T20:51:21;7.15;;;4.60;;
14933;SDS011;7560;51.364;12.384;2024-01-07T20:56:25;7.15;;;4.88;;
14933;SDS011;7560;51.364;12.384;2024-01-07T21:01:27;7.30;;;4.35;;
14933;SDS011;7560;51.364;12.384;2024-01-07T21:06:31;8.05;;;4.15;;
14933;SDS011;7560;51.364;12.384;2024-01-07T21:11:33;10.43;;;4.90;;
14933;SDS011;7560;51.364;12.384;2024-01-07T21:16:35;7.35;;;4.35;;
14933;SDS011;7560;51.364;12.384;2024-01-07T21:21:36;8.32;;;3.80;;
14933;SDS011;7560;51.364;12.384;2024-01-07T21:26:39;10.73;;;5.95;;
14933;SDS011;7560;51.364;12.384;2024-01-07T21:31:41;7.97;;;4.43;;
14933;SDS011;7560;51.364;12.384;2024-01-07T21:36:43;7.60;;;4.55;;
14933;SDS011;7560;51.364;12.384;2024-01-07T21:41:50;7.97;;;4.43;;
14933;SDS011;7560;51.364;12.384;2024-01-07T21:46:51;7.97;;;5.28;;
14933;SDS011;7560;51.364;12.384;2024-01-07T21:51:53;6.30;;;3.72;;
14933;SDS011;7560;51.364;12.384;2024-01-07T21:56:56;5.60;;;3.50;;
14933;SDS011;7560;51.364;12.384;2024-01-07T22:01:58;7.10;;;3.72;;
14933;SDS011;7560;51.364;12.384;2024-01-07T22:07:00;6.90;;;3.72;;
14933;SDS011;7560;51.364;12.384;2024-01-07T22:12:02;5.05;;;3.22;;
14933;SDS011;7560;51.364;12.384;2024-01-07T22:17:04;7.25;;;3.97;;
14933;SDS011;7560;51.364;12.384;2024-01-07T22:22:06;7.05;;;3.75;;
14933;SDS011;7560;51.364;12.384;2024-01-07T22:27:09;7.70;;;4.18;;
14933;SDS011;7560;51.364;12.384;2024-01-07T22:32:10;6.82;;;3.72;;
14933;SDS011;7560;51.364;12.384;2024-01-07T22:37:13;5.10;;;3.63;;
14933;SDS011;7560;51.364;12.384;2024-01-07T22:42:15;8.38;;;4.05;;
14933;SDS011;7560;51.364;12.384;2024-01-07T22:47:17;7.13;;;4.35;;
14933;SDS011;7560;51.364;12.384;2024-01-07T22:52:19;6.57;;;3.72;;
14933;SDS011;7560;51.364;12.384;2024-01-07T22:57:24;5.80;;;4.00;;
14933;SDS011;7560;51.364;12.384;2024-01-07T23:02:26;7.70;;;4.28;;
14933;SDS011;7560;51.364;12.384;2024-01-07T23:07:28;6.07;;;3.65;;
14933;SDS011;7560;51.364;12.384;2024-01-07T23:12:30;5.00;;;3.78;;
14933;SDS011;7560;51.364;12.384;2024-01-07T23:17:32;5.35;;;3.15;;
14933;SDS011;7560;51.364;12.384;2024-01-07T23:22:34;5.88;;;2.75;;
14933;SDS011;7560;51.364;12.384;2024-01-07T23:27:38;5.95;;;3.70;;
14933;SDS011;7560;51.364;12.384;2024-01-07T23:32:41;4.90;;;3.47;;
14933;SDS011;7560;51.364;12.384;2024-01-07T23:37:43;5.80;;;3.65;;
14933;SDS011;7560;51.364;12.384;2024-01-07T23:42:45;7.03;;;3.08;;
14933;SDS011;7560;51.364;12.384;2024-01-07T23:47:47;5.88;;;3.50;;
14933;SDS011;7560;51.364;12.384;2024-01-07T23:52:48;7.53;;;3.47;;
14933;SDS011;7560;51.364;12.384;2024-01-07T23:57:50;5.55;;;3.05;;
